createdAt,value
2019-02-28T00:00:41.508Z,18.67
2019-02-28T00:03:17.461Z,14.47
2019-02-28T00:05:52.916Z,15.20
2019-02-28T00:08:23.427Z,15.53
2019-02-28T00:11:12.439Z,16.42
2019-02-28T00:13:48.907Z,14.40
2019-02-28T00:16:25.295Z,16.07
2019-02-28T00:18:57.504Z,13.65
2019-02-28T00:21:31.688Z,19.00
2019-02-28T00:24:04.742Z,13.90
2019-02-28T00:26:46.268Z,13.32
2019-02-28T00:29:12.746Z,15.40
2019-02-28T00:31:50.791Z,15.32
2019-02-28T00:34:39.346Z,17.25
2019-02-28T00:37:29.751Z,16.12
2019-02-28T00:40:01.710Z,16.97
2019-02-28T00:42:32.911Z,13.88
2019-02-28T00:45:03.781Z,16.82
2019-02-28T00:47:36.003Z,18.77
2019-02-28T00:50:06.145Z,21.00
2019-02-28T00:52:36.312Z,20.05
2019-02-28T00:55:06.713Z,19.37
2019-02-28T00:57:36.972Z,19.82
2019-02-28T01:00:08.445Z,18.15
2019-02-28T01:02:38.767Z,17.37
2019-02-28T01:05:10.726Z,23.12
2019-02-28T01:07:40.827Z,20.68
2019-02-28T01:10:11.978Z,23.07
2019-02-28T01:12:45.074Z,24.40
2019-02-28T01:15:15.402Z,26.25
2019-02-28T01:17:45.553Z,17.75
2019-02-28T01:20:17.504Z,24.65
2019-02-28T01:22:48.847Z,22.30
2019-02-28T01:25:20.505Z,22.95
2019-02-28T01:27:53.456Z,19.37
2019-02-28T01:30:23.592Z,20.35
2019-02-28T01:32:55.541Z,26.27
2019-02-28T01:35:25.714Z,25.90
2019-02-28T01:37:58.908Z,25.02
2019-02-28T01:40:31.382Z,28.35
2019-02-28T01:43:01.491Z,25.02
2019-02-28T01:45:32.596Z,25.45
2019-02-28T01:48:03.133Z,25.95
2019-02-28T01:50:33.851Z,29.48
2019-02-28T01:53:04.124Z,29.10
2019-02-28T01:55:34.266Z,33.55
2019-02-28T01:58:04.375Z,28.67
2019-02-28T02:00:34.504Z,33.80
2019-02-28T02:03:04.586Z,29.20
2019-02-28T02:05:34.736Z,30.90
2019-02-28T02:08:07.597Z,29.32
2019-02-28T02:10:37.762Z,33.15
2019-02-28T02:13:07.896Z,28.62
2019-02-28T02:15:37.989Z,35.70
2019-02-28T02:18:09.432Z,34.65
2019-02-28T02:20:39.892Z,34.03
2019-02-28T02:23:10.012Z,38.05
2019-02-28T02:25:40.124Z,39.48
2019-02-28T02:28:10.346Z,38.50
2019-02-28T02:30:40.464Z,43.45
2019-02-28T02:33:14.428Z,39.63
2019-02-28T02:35:43.653Z,40.75
2019-02-28T02:38:13.741Z,40.60
2019-02-28T02:40:43.836Z,45.15
2019-02-28T02:43:14.027Z,44.15
2019-02-28T02:45:45.588Z,42.88
2019-02-28T02:48:16.042Z,44.98
2019-02-28T02:50:46.654Z,48.20
2019-02-28T02:53:17.974Z,46.37
2019-02-28T02:55:48.083Z,45.03
2019-02-28T02:58:18.210Z,51.88
2019-02-28T03:00:51.182Z,51.23
2019-02-28T03:03:22.342Z,49.08
2019-02-28T03:05:52.454Z,52.53
2019-02-28T03:08:22.571Z,53.58
2019-02-28T03:10:54.790Z,51.15
2019-02-28T03:13:24.911Z,57.75
2019-02-28T03:15:59.320Z,55.12
2019-02-28T03:18:27.830Z,63.60
2019-02-28T03:20:59.052Z,60.60
2019-02-28T03:23:29.168Z,63.28
2019-02-28T03:26:05.284Z,59.98
2019-02-28T03:28:33.396Z,64.00
2019-02-28T03:31:14.124Z,62.20
2019-02-28T03:33:38.611Z,61.37
2019-02-28T03:36:08.714Z,61.90
2019-02-28T03:38:38.859Z,67.32
2019-02-28T03:41:16.052Z,64.47
2019-02-28T03:43:43.778Z,62.30
2019-02-28T03:46:14.502Z,66.97
2019-02-28T03:48:44.581Z,67.42
2019-02-28T03:51:17.661Z,66.85
2019-02-28T03:53:55.541Z,64.75
2019-02-28T03:56:21.026Z,70.57
2019-02-28T03:58:53.863Z,65.03
2019-02-28T04:01:25.728Z,66.17
2019-02-28T04:03:55.993Z,65.05
2019-02-28T04:06:26.258Z,63.92
2019-02-28T04:09:07.028Z,72.70
2019-02-28T04:11:35.059Z,61.13
2019-02-28T04:14:05.953Z,62.15
2019-02-28T04:16:38.472Z,67.95
2019-02-28T04:19:08.642Z,66.72
2019-02-28T04:21:38.805Z,65.87
2019-02-28T04:24:13.817Z,66.53
2019-02-28T04:26:40.741Z,68.52
2019-02-28T04:29:11.431Z,66.05
2019-02-28T04:31:41.710Z,68.42
2019-02-28T04:34:13.352Z,67.67
2019-02-28T04:36:43.676Z,72.55
2019-02-28T04:39:13.783Z,71.42
2019-02-28T04:41:43.923Z,68.47
2019-02-28T04:44:18.307Z,69.03
2019-02-28T04:46:49.517Z,71.00
2019-02-28T04:49:22.744Z,67.95
2019-02-28T04:51:51.460Z,67.25
2019-02-28T04:54:27.888Z,74.72
2019-02-28T04:56:59.243Z,74.10
2019-02-28T04:59:31.606Z,72.97
2019-02-28T05:02:05.418Z,75.85
2019-02-28T05:04:36.121Z,72.60
2019-02-28T05:07:06.931Z,77.78
2019-02-28T05:09:37.148Z,77.72
2019-02-28T05:12:09.680Z,72.53
2019-02-28T05:14:39.955Z,78.05
2019-02-28T05:17:11.934Z,77.05
2019-02-28T05:19:43.153Z,73.70
2019-02-28T05:22:13.389Z,77.72
2019-02-28T05:24:43.797Z,75.05
2019-02-28T05:27:14.005Z,74.17
2019-02-28T05:29:44.833Z,75.83
2019-02-28T05:32:14.981Z,73.20
2019-02-28T05:34:47.433Z,76.62
2019-02-28T05:37:19.394Z,82.45
2019-02-28T05:39:49.718Z,75.95
2019-02-28T05:42:20.310Z,80.87
2019-02-28T05:44:51.688Z,79.40
2019-02-28T05:47:21.849Z,77.70
2019-02-28T05:49:51.912Z,78.12
2019-02-28T05:52:22.025Z,75.45
2019-02-28T05:54:52.114Z,77.22
2019-02-28T05:57:22.245Z,81.02
2019-02-28T05:59:52.603Z,75.85
2019-02-28T06:02:23.559Z,79.03
2019-02-28T06:04:54.714Z,79.65
2019-02-28T06:07:28.696Z,80.22
2019-02-28T06:09:56.712Z,81.55
2019-02-28T06:12:26.845Z,76.53
2019-02-28T06:15:01.951Z,81.87
2019-02-28T06:17:28.795Z,82.02
2019-02-28T06:19:59.714Z,83.92
2019-02-28T06:22:30.824Z,84.17
2019-02-28T06:25:01.979Z,78.42
2019-02-28T06:27:41.108Z,81.30
2019-02-28T06:30:04.057Z,81.57
2019-02-28T06:32:34.244Z,84.90
2019-02-28T06:35:04.990Z,87.17
2019-02-28T06:37:38.397Z,82.88
2019-02-28T06:40:09.392Z,86.05
2019-02-28T06:42:43.594Z,82.78
2019-02-28T06:45:16.733Z,82.27
2019-02-28T06:47:50.948Z,84.58
2019-02-28T06:50:21.184Z,87.12
2019-02-28T06:52:51.884Z,85.25
2019-02-28T06:55:25.733Z,86.35
2019-02-28T06:57:58.859Z,87.47
2019-02-28T07:00:30.640Z,91.87
2019-02-28T07:03:03.413Z,89.25
2019-02-28T07:05:32.538Z,90.35
2019-02-28T07:08:02.658Z,96.15
2019-02-28T07:10:33.265Z,85.90
2019-02-28T07:13:05.732Z,89.83
2019-02-28T07:15:39.063Z,87.72
2019-02-28T07:18:09.726Z,89.60
2019-02-28T07:20:39.831Z,89.35
2019-02-28T07:23:10.078Z,94.13
2019-02-28T07:25:40.169Z,80.45
2019-02-28T07:28:10.285Z,88.70
2019-02-28T07:30:40.378Z,96.22
2019-02-28T07:33:10.905Z,89.40
2019-02-28T07:35:47.577Z,91.10
2019-02-28T07:38:20.430Z,84.85
2019-02-28T07:40:50.729Z,88.58
2019-02-28T07:43:20.931Z,85.72
2019-02-28T07:45:54.054Z,90.50
2019-02-28T07:48:30.059Z,86.28
2019-02-28T07:51:02.109Z,87.37
2019-02-28T07:53:35.522Z,84.83
2019-02-28T07:56:07.774Z,87.60
2019-02-28T07:58:38.059Z,92.80
2019-02-28T08:01:11.138Z,90.72
2019-02-28T08:03:43.712Z,91.25
2019-02-28T08:06:15.002Z,90.15
2019-02-28T08:08:45.147Z,92.12
2019-02-28T08:11:15.268Z,90.50
2019-02-28T08:13:51.776Z,91.25
2019-02-28T08:16:24.865Z,92.70
2019-02-28T08:18:54.993Z,89.90
2019-02-28T08:21:27.890Z,88.17
2019-02-28T08:23:58.029Z,92.40
2019-02-28T08:26:28.127Z,89.97
2019-02-28T08:29:01.737Z,91.47
2019-02-28T08:31:35.355Z,98.97
2019-02-28T08:34:05.777Z,92.12
2019-02-28T08:36:36.026Z,93.15
2019-02-28T08:39:17.258Z,92.53
2019-02-28T08:41:49.541Z,93.47
2019-02-28T08:44:22.777Z,92.82
2019-02-28T08:46:51.667Z,92.50
2019-02-28T08:49:24.865Z,91.53
2019-02-28T08:51:56.981Z,91.17
2019-02-28T08:54:27.562Z,93.97
2019-02-28T08:56:58.881Z,93.03
2019-02-28T08:59:32.740Z,89.90
2019-02-28T09:02:02.824Z,89.35
2019-02-28T09:04:44.882Z,100.02
2019-02-28T09:07:15.232Z,90.17
2019-02-28T09:09:48.042Z,92.80
2019-02-28T09:12:18.157Z,89.00
2019-02-28T09:14:51.928Z,89.77
2019-02-28T09:17:26.387Z,87.65
2019-02-28T09:19:56.560Z,93.47
2019-02-28T09:22:30.935Z,90.12
2019-02-28T09:25:01.183Z,91.92
2019-02-28T09:27:31.798Z,89.67
2019-02-28T09:30:01.986Z,91.15
2019-02-28T09:32:33.762Z,82.55
2019-02-28T09:35:06.396Z,85.90
2019-02-28T09:37:36.109Z,83.70
2019-02-28T09:40:07.538Z,81.60
2019-02-28T09:42:37.679Z,88.05
2019-02-28T09:45:10.520Z,81.50
2019-02-28T09:47:40.722Z,88.07
2019-02-28T09:50:15.280Z,80.42
2019-02-28T09:52:47.788Z,83.90
2019-02-28T09:55:21.288Z,84.83
2019-02-28T09:57:54.675Z,83.07
2019-02-28T10:00:23.533Z,87.22
2019-02-28T10:02:53.700Z,78.45
2019-02-28T10:05:23.989Z,84.10
2019-02-28T10:07:54.227Z,84.58
2019-02-28T10:10:24.488Z,84.42
2019-02-28T10:12:56.791Z,81.32
2019-02-28T10:15:26.596Z,82.12
2019-02-28T10:17:56.711Z,79.75
2019-02-28T10:20:28.509Z,82.50
2019-02-28T10:22:59.028Z,80.80
2019-02-28T10:25:29.198Z,75.78
2019-02-28T10:28:02.677Z,85.07
2019-02-28T10:30:32.599Z,84.55
2019-02-28T10:33:02.928Z,83.30
2019-02-28T10:35:33.547Z,79.80
2019-02-28T10:38:05.753Z,79.17
2019-02-28T10:40:40.147Z,79.32
2019-02-28T10:43:12.173Z,80.07
2019-02-28T10:45:42.899Z,82.42
2019-02-28T10:48:13.426Z,73.12
2019-02-28T10:50:46.072Z,89.25
2019-02-28T10:53:19.318Z,77.10
2019-02-28T10:55:54.451Z,75.70
2019-02-28T10:58:26.704Z,74.85
2019-02-28T11:00:57.198Z,79.53
2019-02-28T11:03:31.764Z,77.70
2019-02-28T11:06:02.857Z,81.30
2019-02-28T11:08:34.608Z,74.07
2019-02-28T11:11:11.409Z,75.97
2019-02-28T11:14:06.704Z,76.25
2019-02-28T11:16:24.468Z,75.28
2019-02-28T11:18:57.883Z,76.67
2019-02-28T11:21:29.750Z,73.97
2019-02-28T11:24:01.259Z,80.90
2019-02-28T11:26:33.940Z,80.57
2019-02-28T11:29:11.511Z,74.90
2019-02-28T11:31:42.251Z,77.90
2019-02-28T11:34:15.003Z,79.72
2019-02-28T11:36:45.347Z,77.15
2019-02-28T11:39:23.299Z,80.25
2019-02-28T11:41:55.158Z,87.02
2019-02-28T11:44:25.545Z,77.37
2019-02-28T11:46:56.713Z,75.97
2019-02-28T11:49:28.660Z,77.45
2019-02-28T11:52:06.025Z,79.90
2019-02-28T11:54:36.388Z,77.62
2019-02-28T11:57:07.041Z,82.20
2019-02-28T11:59:37.357Z,76.20
2019-02-28T12:02:08.262Z,85.40
2019-02-28T12:04:40.540Z,82.72
2019-02-28T12:07:10.983Z,77.27
2019-02-28T12:09:44.301Z,82.82
2019-02-28T12:12:14.219Z,86.78
2019-02-28T12:14:44.421Z,77.12
2019-02-28T12:17:18.029Z,76.62
2019-02-28T12:19:50.711Z,73.20
2019-02-28T12:22:21.235Z,72.20
2019-02-28T12:24:51.425Z,78.60
2019-02-28T12:27:24.415Z,64.75
2019-02-28T12:29:55.904Z,74.42
2019-02-28T12:32:26.630Z,71.82
2019-02-28T12:35:01.293Z,75.62
2019-02-28T12:37:44.594Z,73.05
2019-02-28T12:40:22.004Z,75.80
2019-02-28T12:42:53.994Z,69.92
2019-02-28T12:45:35.218Z,74.22
2019-02-28T12:48:07.261Z,69.42
2019-02-28T12:50:39.136Z,72.82
2019-02-28T12:53:32.593Z,69.22
2019-02-28T12:56:06.221Z,68.97
2019-02-28T12:58:39.005Z,68.60
2019-02-28T13:01:13.245Z,77.65
2019-02-28T13:03:46.717Z,64.42
2019-02-28T13:06:23.681Z,79.32
2019-02-28T13:08:53.916Z,72.35
2019-02-28T13:11:26.945Z,64.32
2019-02-28T13:14:09.142Z,67.47
2019-02-28T13:16:39.745Z,65.03
2019-02-28T13:19:10.820Z,76.15
2019-02-28T13:21:43.590Z,65.70
2019-02-28T13:24:15.067Z,72.75
2019-02-28T13:26:45.392Z,68.37
2019-02-28T13:29:18.581Z,70.90
2019-02-28T13:31:48.901Z,80.20
2019-02-28T13:34:24.885Z,70.15
2019-02-28T13:37:00.555Z,79.07
2019-02-28T13:39:27.412Z,74.95
2019-02-28T13:42:02.986Z,74.87
2019-02-28T13:44:36.437Z,67.40
2019-02-28T13:47:09.803Z,73.12
2019-02-28T13:49:38.673Z,70.62
2019-02-28T13:52:08.808Z,67.35
2019-02-28T13:54:42.109Z,64.72
2019-02-28T13:57:11.292Z,66.95
2019-02-28T13:59:41.508Z,65.50
2019-02-28T14:02:13.684Z,70.65
2019-02-28T14:04:43.976Z,65.03
2019-02-28T14:07:15.190Z,71.92
2019-02-28T14:09:45.341Z,72.27
2019-02-28T14:12:17.006Z,61.63
2019-02-28T14:14:51.541Z,72.35
2019-02-28T14:17:21.663Z,71.53
2019-02-28T14:19:52.692Z,72.45
2019-02-28T14:22:23.680Z,75.67
2019-02-28T14:24:53.940Z,74.32
2019-02-28T14:27:25.305Z,69.62
2019-02-28T14:29:56.054Z,69.60
2019-02-28T14:32:26.296Z,69.97
2019-02-28T14:34:59.977Z,71.72
2019-02-28T14:37:30.126Z,72.30
2019-02-28T14:40:00.800Z,77.95
2019-02-28T14:42:32.290Z,75.42
2019-02-28T14:45:04.056Z,77.80
2019-02-28T14:47:34.344Z,77.80
2019-02-28T14:50:07.051Z,72.22
2019-02-28T14:52:39.393Z,80.55
2019-02-28T14:55:14.406Z,71.62
2019-02-28T14:57:45.010Z,67.72
2019-02-28T15:00:17.346Z,75.52
2019-02-28T15:02:47.805Z,70.83
2019-02-28T15:05:21.608Z,65.92
2019-02-28T15:07:52.380Z,63.65
2019-02-28T15:10:53.328Z,71.15
2019-02-28T15:13:25.255Z,69.10
2019-02-28T15:15:58.487Z,62.65
2019-02-28T15:18:31.662Z,63.60
2019-02-28T15:21:04.448Z,68.07
2019-02-28T15:23:35.453Z,66.62
2019-02-28T15:26:09.852Z,73.60
2019-02-28T15:28:45.484Z,61.48
2019-02-28T15:31:15.683Z,66.45
2019-02-28T15:33:45.782Z,66.05
2019-02-28T15:36:24.288Z,63.15
2019-02-28T15:38:58.865Z,70.85
2019-02-28T15:41:30.631Z,69.85
2019-02-28T15:44:09.380Z,72.15
2019-02-28T15:46:43.843Z,69.47
2019-02-28T15:49:13.096Z,67.32
2019-02-28T15:51:43.339Z,68.83
2019-02-28T15:54:13.669Z,67.32
2019-02-28T15:56:51.820Z,79.45
2019-02-28T15:59:38.899Z,66.75
2019-02-28T16:02:10.429Z,67.85
2019-02-28T16:04:40.861Z,75.57
2019-02-28T16:07:11.250Z,74.80
2019-02-28T16:09:41.650Z,68.78
2019-02-28T16:12:15.185Z,69.25
2019-02-28T16:14:45.843Z,69.62
2019-02-28T16:17:17.179Z,82.40
2019-02-28T16:19:47.338Z,69.47
2019-02-28T16:22:19.115Z,77.05
2019-02-28T16:24:53.721Z,71.92
2019-02-28T16:27:23.991Z,72.82
2019-02-28T16:29:57.272Z,76.25
2019-02-28T16:32:36.216Z,74.97
2019-02-28T16:35:14.595Z,77.82
2019-02-28T16:37:48.832Z,76.62
2019-02-28T16:40:27.151Z,80.20
2019-02-28T16:42:59.630Z,82.20
2019-02-28T16:45:37.439Z,76.77
2019-02-28T16:48:09.508Z,75.10
2019-02-28T16:50:39.990Z,69.32
2019-02-28T16:53:14.771Z,75.22
2019-02-28T16:55:42.204Z,80.30
2019-02-28T16:58:12.496Z,75.72
2019-02-28T17:00:46.333Z,76.05
2019-02-28T17:03:20.866Z,73.37
2019-02-28T17:05:52.579Z,75.65
2019-02-28T17:08:23.331Z,70.90
2019-02-28T17:10:55.880Z,75.87
2019-02-28T17:13:35.604Z,80.15
2019-02-28T17:16:28.391Z,72.32
2019-02-28T17:18:58.819Z,80.12
2019-02-28T17:21:37.819Z,84.17
2019-02-28T17:24:08.705Z,84.32
2019-02-28T17:26:55.478Z,83.65
2019-02-28T17:29:36.382Z,81.60
2019-02-28T17:32:06.881Z,79.97
2019-02-28T17:34:39.970Z,76.53
2019-02-28T17:37:11.327Z,77.97
2019-02-28T17:39:42.361Z,77.27
2019-02-28T17:42:15.204Z,85.77
2019-02-28T17:45:10.549Z,76.35
2019-02-28T17:48:26.168Z,84.52
2019-02-28T17:51:22.310Z,80.10
2019-02-28T17:54:48.498Z,84.32
2019-02-28T17:58:05.895Z,81.65
2019-02-28T18:01:19.953Z,86.10
2019-02-28T18:04:29.583Z,84.40
2019-02-28T18:07:34.416Z,91.02
2019-02-28T18:10:50.982Z,80.83
2019-02-28T18:13:30.705Z,82.08
2019-02-28T18:16:54.607Z,85.87
2019-02-28T18:19:51.083Z,82.35
2019-02-28T18:22:56.631Z,82.22
2019-02-28T18:25:40.719Z,83.78
2019-02-28T18:29:06.155Z,85.45
2019-02-28T18:31:36.452Z,85.35
2019-02-28T18:34:12.973Z,82.92
2019-02-28T18:36:44.230Z,77.25
2019-02-28T18:39:15.273Z,89.97
2019-02-28T18:41:46.855Z,79.40
2019-02-28T18:44:25.081Z,79.85
2019-02-28T18:46:55.448Z,90.90
2019-02-28T18:49:30.153Z,82.90
2019-02-28T18:52:04.067Z,86.95
2019-02-28T18:54:35.871Z,81.50
2019-02-28T18:57:09.883Z,91.95
2019-02-28T18:59:47.154Z,92.30
2019-02-28T19:02:21.209Z,94.80
2019-02-28T19:04:53.758Z,89.15
2019-02-28T19:07:26.120Z,84.25
2019-02-28T19:10:00.318Z,92.88
2019-02-28T19:12:37.188Z,87.45
2019-02-28T19:15:22.561Z,89.60
2019-02-28T19:17:58.623Z,89.95
2019-02-28T19:20:30.549Z,84.97
2019-02-28T19:23:00.836Z,89.85
2019-02-28T19:25:31.455Z,86.50
2019-02-28T19:28:07.311Z,87.67
2019-02-28T19:30:37.623Z,88.30
2019-02-28T19:33:08.003Z,82.55
2019-02-28T19:35:38.281Z,94.40
2019-02-28T19:38:20.347Z,88.20
2019-02-28T19:41:03.105Z,99.85
2019-02-28T19:43:34.116Z,87.78
2019-02-28T19:46:17.977Z,84.30
2019-02-28T19:49:01.762Z,88.07
2019-02-28T19:51:35.721Z,84.47
2019-02-28T19:54:11.301Z,93.85
2019-02-28T19:57:06.606Z,104.87
2019-02-28T19:59:37.497Z,88.97
2019-02-28T20:02:10.585Z,87.75
2019-02-28T20:05:04.252Z,90.28
2019-02-28T20:07:36.397Z,95.17
2019-02-28T20:10:09.099Z,86.10
2019-02-28T20:12:43.689Z,90.75
2019-02-28T20:15:17.039Z,90.72
2019-02-28T20:17:52.820Z,94.17
2019-02-28T20:20:24.311Z,91.65
2019-02-28T20:22:54.764Z,85.05
2019-02-28T20:25:27.120Z,93.90
2019-02-28T20:27:58.888Z,89.50
2019-02-28T20:30:31.530Z,95.40
2019-02-28T20:33:06.641Z,94.20
2019-02-28T20:35:37.324Z,97.85
2019-02-28T20:38:08.133Z,103.97
2019-02-28T20:40:38.399Z,110.85
2019-02-28T20:43:09.772Z,102.05
2019-02-28T20:45:40.129Z,100.55
2019-02-28T20:48:10.269Z,104.40
2019-02-28T20:50:41.508Z,111.05
2019-02-28T20:53:18.347Z,108.52
2019-02-28T20:55:58.343Z,99.60
2019-02-28T20:58:42.539Z,106.90
2019-02-28T21:01:13.453Z,99.75
2019-02-28T21:03:46.699Z,101.67
2019-02-28T21:06:17.472Z,112.57
2019-02-28T21:08:47.808Z,106.83
2019-02-28T21:11:18.564Z,120.60
2019-02-28T21:13:49.974Z,109.35
2019-02-28T21:16:20.313Z,113.70
2019-02-28T21:18:50.596Z,110.17
2019-02-28T21:21:20.856Z,109.32
2019-02-28T21:23:53.963Z,114.28
2019-02-28T21:26:24.422Z,122.78
2019-02-28T21:28:54.820Z,123.67
2019-02-28T21:31:25.210Z,120.40
2019-02-28T21:33:57.694Z,116.73
2019-02-28T21:36:28.050Z,120.65
2019-02-28T21:39:02.218Z,116.60
2019-02-28T21:41:34.546Z,119.50
2019-02-28T21:44:06.202Z,117.70
2019-02-28T21:46:36.416Z,121.13
2019-02-28T21:49:08.182Z,124.07
2019-02-28T21:51:38.355Z,125.75
2019-02-28T21:54:08.541Z,124.22
2019-02-28T21:56:38.673Z,127.00
2019-02-28T21:59:08.931Z,132.93
2019-02-28T22:01:40.945Z,127.85
2019-02-28T22:04:11.210Z,119.77
2019-02-28T22:06:41.442Z,124.10
2019-02-28T22:09:11.683Z,119.95
2019-02-28T22:11:43.778Z,126.92
2019-02-28T22:14:15.168Z,125.10
2019-02-28T22:16:45.272Z,123.90
2019-02-28T22:19:15.925Z,134.43
2019-02-28T22:21:46.068Z,137.03
2019-02-28T22:24:16.236Z,124.07
2019-02-28T22:26:48.799Z,124.65
2019-02-28T22:29:19.980Z,117.87
2019-02-28T22:32:10.253Z,132.65
2019-02-28T22:35:04.024Z,120.20
2019-02-28T22:37:35.984Z,125.70
2019-02-28T22:40:06.873Z,119.60
2019-02-28T22:42:37.007Z,116.77
2019-02-28T22:45:07.501Z,117.67
2019-02-28T22:47:37.593Z,116.93
2019-02-28T22:50:07.764Z,116.77
2019-02-28T22:52:39.174Z,118.33
2019-02-28T22:55:09.523Z,118.90
2019-02-28T22:57:40.768Z,116.55
2019-02-28T23:00:19.342Z,118.87
2019-02-28T23:02:51.105Z,116.85
2019-02-28T23:05:22.475Z,110.52
2019-02-28T23:07:53.823Z,112.00
2019-02-28T23:10:25.741Z,120.35
2019-02-28T23:12:56.010Z,117.22
2019-02-28T23:15:26.993Z,117.72
2019-02-28T23:17:57.507Z,119.50
2019-02-28T23:20:27.689Z,126.82
2019-02-28T23:22:57.997Z,125.33
2019-02-28T23:25:28.274Z,116.67
2019-02-28T23:28:10.166Z,120.40
2019-02-28T23:31:37.125Z,110.50
2019-02-28T23:34:15.047Z,117.03
2019-02-28T23:36:45.615Z,127.85
2019-02-28T23:39:16.927Z,118.82
2019-02-28T23:41:47.144Z,110.15
2019-02-28T23:44:17.297Z,105.47
2019-02-28T23:46:47.441Z,104.75
2019-02-28T23:49:17.675Z,103.75
2019-02-28T23:51:47.780Z,99.28
2019-02-28T23:54:17.926Z,95.70
2019-02-28T23:56:49.123Z,90.35
2019-02-28T23:59:19.255Z,91.80
